createdAt,value
2022-10-02T00:00:34.329Z,7.43
2022-10-02T00:03:07.381Z,6.77
2022-10-02T00:05:40.137Z,6.03
2022-10-02T00:08:24.012Z,10.03
2022-10-02T00:10:59.519Z,4.83
2022-10-02T00:13:42.632Z,7.77
2022-10-02T00:16:26.301Z,6.93
2022-10-02T00:18:55.315Z,4.33
2022-10-02T00:21:45.166Z,9.20
2022-10-02T00:24:18.792Z,5.77
2022-10-02T00:26:52.301Z,8.40
2022-10-02T00:29:37.655Z,10.43
2022-10-02T00:32:14.198Z,9.07
2022-10-02T00:35:02.032Z,7.63
2022-10-02T00:38:03.430Z,10.87
2022-10-02T00:40:42.067Z,7.87
2022-10-02T00:43:28.538Z,11.77
2022-10-02T00:46:05.146Z,10.03
2022-10-02T00:48:49.228Z,5.33
2022-10-02T00:51:45.363Z,5.83
2022-10-02T00:54:23.812Z,7.30
2022-10-02T00:57:07.276Z,7.07
2022-10-02T00:59:39.732Z,5.77
2022-10-02T01:02:32.029Z,9.17
2022-10-02T01:05:06.190Z,9.50
2022-10-02T01:07:34.708Z,11.20
2022-10-02T01:10:01.563Z,8.17
2022-10-02T01:12:28.703Z,11.60
2022-10-02T01:14:55.367Z,6.10
2022-10-02T01:17:25.535Z,10.60
2022-10-02T01:19:52.362Z,6.23
2022-10-02T01:22:40.037Z,8.40
2022-10-02T01:25:07.950Z,8.90
2022-10-02T01:27:39.189Z,4.67
2022-10-02T01:30:09.492Z,4.23
2022-10-02T01:32:40.668Z,5.33
2022-10-02T01:35:08.278Z,8.70
2022-10-02T01:37:39.331Z,5.27
2022-10-02T01:40:22.385Z,7.13
2022-10-02T01:42:50.033Z,4.53
2022-10-02T01:45:16.788Z,6.83
2022-10-02T01:47:55.980Z,7.67
2022-10-02T01:50:53.121Z,6.43
2022-10-02T01:53:44.408Z,10.87
2022-10-02T01:56:34.847Z,6.83
2022-10-02T01:59:15.687Z,7.33
2022-10-02T02:01:53.134Z,8.53
2022-10-02T02:04:27.867Z,6.10
2022-10-02T02:06:54.399Z,11.03
2022-10-02T02:09:48.309Z,7.20
2022-10-02T02:12:28.479Z,7.67
2022-10-02T02:15:04.925Z,7.87
2022-10-02T02:17:45.334Z,10.00
2022-10-02T02:20:22.688Z,10.53
2022-10-02T02:22:52.659Z,9.13
2022-10-02T02:25:28.465Z,10.90
2022-10-02T02:28:03.330Z,6.67
2022-10-02T02:30:32.134Z,10.40
2022-10-02T02:33:07.296Z,13.53
2022-10-02T02:35:45.714Z,11.23
2022-10-02T02:38:25.690Z,6.63
2022-10-02T02:40:52.608Z,9.77
2022-10-02T02:43:35.275Z,11.73
2022-10-02T02:46:15.212Z,7.27
2022-10-02T02:49:10.690Z,10.87
2022-10-02T02:51:42.984Z,9.20
2022-10-02T02:54:19.482Z,8.30
2022-10-02T02:56:48.969Z,10.23
2022-10-02T02:59:16.684Z,7.37
2022-10-02T03:01:43.361Z,9.17
2022-10-02T03:04:12.618Z,14.20
2022-10-02T03:06:45.551Z,7.57
2022-10-02T03:09:22.472Z,10.53
2022-10-02T03:12:15.124Z,3.83
2022-10-02T03:15:15.485Z,9.53
2022-10-02T03:18:03.353Z,11.10
2022-10-02T03:20:39.468Z,8.13
2022-10-02T03:23:24.345Z,8.47
2022-10-02T03:25:52.885Z,11.53
2022-10-02T03:28:56.297Z,7.50
2022-10-02T03:31:27.298Z,7.57
2022-10-02T03:33:55.388Z,6.00
2022-10-02T03:36:24.364Z,6.73
2022-10-02T03:39:12.965Z,6.50
2022-10-02T03:41:41.678Z,9.63
2022-10-02T03:44:08.268Z,5.47
2022-10-02T03:46:35.365Z,6.57
2022-10-02T03:49:02.203Z,10.37
2022-10-02T03:51:28.748Z,8.63
2022-10-02T03:53:55.341Z,8.47
2022-10-02T03:56:41.450Z,9.17
2022-10-02T03:59:16.095Z,8.83
2022-10-02T04:01:49.240Z,6.13
2022-10-02T04:04:26.749Z,5.87
2022-10-02T04:06:56.849Z,7.63
2022-10-02T04:09:31.925Z,8.43
2022-10-02T04:12:07.159Z,6.53
2022-10-02T04:14:51.250Z,8.43
2022-10-02T04:17:32.328Z,8.93
2022-10-02T04:20:17.586Z,6.27
2022-10-02T04:23:16.631Z,3.43
2022-10-02T04:25:49.770Z,6.33
2022-10-02T04:28:22.583Z,6.33
2022-10-02T04:30:53.405Z,4.67
2022-10-02T04:33:22.431Z,4.77
2022-10-02T04:36:12.334Z,8.97
2022-10-02T04:39:03.345Z,8.77
2022-10-02T04:41:57.701Z,3.70
2022-10-02T04:44:39.372Z,8.20
2022-10-02T04:47:20.957Z,5.07
2022-10-02T04:50:17.182Z,6.33
2022-10-02T04:53:15.972Z,4.23
2022-10-02T04:56:15.164Z,7.37
2022-10-02T04:59:02.660Z,6.77
2022-10-02T05:01:58.492Z,8.03
2022-10-02T05:04:37.077Z,6.47
2022-10-02T05:07:32.338Z,5.70
2022-10-02T05:10:45.934Z,8.00
2022-10-02T05:13:45.062Z,5.50
2022-10-02T05:16:19.679Z,7.67
2022-10-02T05:19:07.717Z,8.17
2022-10-02T05:21:56.167Z,7.97
2022-10-02T05:24:37.011Z,7.90
2022-10-02T05:27:18.293Z,6.07
2022-10-02T05:30:05.278Z,4.47
2022-10-02T05:32:50.267Z,7.03
2022-10-02T05:35:19.850Z,3.73
2022-10-02T05:38:21.351Z,7.20
2022-10-02T05:41:28.353Z,8.17
2022-10-02T06:43:05.341Z,8.03
2022-10-02T06:46:08.190Z,8.50
2022-10-02T06:48:59.176Z,7.03
2022-10-02T06:51:44.716Z,7.57
2022-10-02T06:54:20.398Z,11.63
2022-10-02T06:57:24.465Z,8.97
2022-10-02T07:00:17.678Z,8.80
2022-10-02T07:03:03.987Z,8.03
2022-10-02T07:05:59.428Z,9.67
2022-10-02T07:08:52.110Z,6.13
2022-10-02T07:11:33.766Z,5.80
2022-10-02T07:14:19.521Z,5.43
2022-10-02T07:17:30.496Z,7.27
2022-10-02T07:20:05.979Z,6.10
2022-10-02T07:22:57.294Z,8.73
2022-10-02T07:25:58.111Z,8.33
2022-10-02T07:28:50.562Z,15.47
2022-10-02T07:31:28.941Z,6.23
2022-10-02T07:33:58.366Z,5.47
2022-10-02T07:36:43.947Z,7.27
2022-10-02T07:39:41.714Z,7.27
2022-10-02T07:42:35.076Z,8.40
2022-10-02T07:45:11.164Z,6.40
2022-10-02T07:47:56.718Z,1.93
2022-10-02T07:50:35.408Z,6.03
2022-10-02T07:53:40.421Z,6.83
2022-10-02T07:56:11.687Z,6.67
2022-10-02T07:58:50.072Z,3.73
2022-10-02T08:01:21.087Z,5.37
2022-10-02T08:04:31.363Z,5.73
2022-10-02T08:07:03.917Z,5.70
2022-10-02T08:09:38.722Z,3.83
2022-10-02T08:12:15.015Z,6.63
2022-10-02T08:14:45.742Z,8.60
2022-10-02T08:17:27.642Z,5.97
2022-10-02T08:19:59.045Z,5.50
2022-10-02T08:22:39.356Z,6.03
2022-10-02T08:25:18.911Z,7.10
2022-10-02T08:28:04.253Z,5.23
2022-10-02T08:30:30.881Z,4.27
2022-10-02T08:32:58.448Z,6.37
2022-10-02T08:35:40.383Z,5.17
2022-10-02T08:38:12.387Z,5.50
2022-10-02T08:40:51.531Z,6.67
2022-10-02T08:43:55.703Z,4.47
2022-10-02T08:47:13.808Z,4.80
2022-10-02T08:50:02.504Z,4.33
2022-10-02T08:52:36.557Z,5.57
2022-10-02T08:55:24.425Z,4.53
2022-10-02T08:58:10.949Z,4.70
2022-10-02T09:00:47.251Z,4.67
2022-10-02T09:03:45.814Z,5.97
2022-10-02T09:06:59.500Z,4.37
2022-10-02T09:09:47.109Z,4.43
2022-10-02T09:12:58.274Z,7.40
2022-10-02T09:15:54.219Z,6.57
2022-10-02T09:19:02.837Z,7.73
2022-10-02T09:21:50.503Z,13.00
2022-10-02T09:24:48.035Z,3.93
2022-10-02T09:27:47.313Z,5.53
2022-10-02T09:30:34.396Z,6.57
2022-10-02T09:33:36.792Z,22.20
2022-10-02T09:36:25.263Z,3.87
2022-10-02T09:39:40.880Z,3.83
2022-10-02T09:42:48.537Z,3.30
2022-10-02T09:45:36.486Z,6.90
2022-10-02T09:48:11.755Z,2.70
2022-10-02T09:51:04.598Z,8.23
2022-10-02T09:53:55.348Z,4.10
2022-10-02T09:56:46.209Z,4.50
2022-10-02T09:59:58.181Z,6.03
2022-10-02T10:02:46.807Z,5.43
2022-10-02T10:05:39.815Z,7.03
2022-10-02T10:08:38.999Z,4.67
2022-10-02T10:11:39.895Z,7.10
2022-10-02T10:14:48.149Z,2.37
2022-10-02T10:17:42.531Z,3.37
2022-10-02T10:20:22.160Z,4.33
2022-10-02T10:23:00.895Z,4.63
2022-10-02T10:25:37.304Z,4.37
2022-10-02T10:28:24.975Z,4.30
2022-10-02T10:31:13.586Z,5.43
2022-10-02T10:34:04.779Z,3.70
2022-10-02T10:37:15.003Z,3.33
2022-10-02T10:40:00.206Z,5.03
2022-10-02T10:43:07.079Z,4.00
2022-10-02T10:46:13.785Z,6.63
2022-10-02T10:49:02.827Z,6.23
2022-10-02T10:51:40.881Z,4.73
2022-10-02T10:54:16.829Z,3.67
2022-10-02T10:56:49.307Z,4.87
2022-10-02T10:59:55.795Z,5.03
2022-10-02T11:02:41.741Z,7.83
2022-10-02T11:05:39.817Z,4.17
2022-10-02T11:08:39.638Z,5.80
2022-10-02T11:11:16.861Z,5.50
2022-10-02T11:13:44.339Z,4.83
2022-10-02T11:16:29.088Z,6.63
2022-10-02T11:19:08.420Z,4.50
2022-10-02T11:21:41.305Z,3.87
2022-10-02T11:24:39.708Z,4.27
2022-10-02T11:27:21.675Z,5.00
2022-10-02T11:30:01.152Z,3.97
2022-10-02T11:32:54.114Z,4.90
2022-10-02T11:35:48.308Z,5.33
2022-10-02T11:38:26.044Z,3.33
2022-10-02T11:41:10.684Z,5.23
2022-10-02T11:44:18.604Z,3.87
2022-10-02T11:47:07.363Z,5.00
2022-10-02T11:50:01.843Z,3.53
2022-10-02T11:52:58.741Z,2.70
2022-10-02T11:55:31.175Z,3.27
2022-10-02T11:58:27.018Z,3.47
2022-10-02T12:01:08.555Z,2.60
2022-10-02T12:04:04.065Z,2.63
2022-10-02T12:06:52.384Z,3.60
2022-10-02T12:09:37.939Z,3.57
2022-10-02T12:12:28.068Z,2.80
2022-10-02T12:15:18.584Z,2.57
2022-10-02T12:17:58.255Z,2.23
2022-10-02T12:21:01.521Z,2.80
2022-10-02T12:24:08.613Z,3.13
2022-10-02T12:26:59.668Z,2.50
2022-10-02T12:29:51.022Z,2.63
2022-10-02T12:32:49.651Z,2.83
2022-10-02T12:35:40.355Z,2.60
2022-10-02T12:38:49.779Z,3.00
2022-10-02T12:41:43.467Z,3.47
2022-10-02T12:44:35.470Z,2.00
2022-10-02T12:47:17.804Z,1.27
2022-10-02T12:50:13.070Z,2.37
2022-10-02T12:53:18.606Z,3.97
2022-10-02T12:56:14.827Z,2.20
2022-10-02T12:59:13.397Z,1.57
2022-10-02T13:02:10.970Z,1.50
2022-10-02T13:04:40.375Z,1.27
2022-10-02T13:07:06.986Z,1.50
2022-10-02T13:10:19.020Z,1.97
2022-10-02T13:13:02.618Z,1.43
2022-10-02T13:16:05.373Z,2.07
2022-10-02T13:18:33.688Z,1.23
2022-10-02T13:21:39.843Z,2.90
2022-10-02T13:24:40.421Z,1.10
2022-10-02T13:27:33.358Z,1.33
2022-10-02T13:30:06.758Z,1.40
2022-10-02T13:32:33.512Z,0.70
2022-10-02T13:35:07.225Z,0.80
2022-10-02T13:38:03.654Z,0.90
2022-10-02T13:41:13.127Z,0.60
2022-10-02T13:44:16.464Z,1.00
2022-10-02T13:46:53.502Z,0.80
2022-10-02T13:49:30.232Z,0.70
2022-10-02T13:52:12.345Z,1.00
2022-10-02T13:55:02.838Z,2.23
2022-10-02T13:57:48.891Z,0.50
2022-10-02T14:00:37.217Z,0.70
2022-10-02T14:03:37.967Z,1.63
2022-10-02T14:06:23.436Z,1.33
2022-10-02T14:09:11.179Z,1.33
2022-10-02T14:12:02.645Z,0.80
2022-10-02T14:14:56.411Z,1.00
2022-10-02T14:17:44.686Z,1.00
2022-10-02T14:20:55.128Z,0.97
2022-10-02T14:23:47.688Z,0.87
2022-10-02T14:26:38.912Z,0.80
2022-10-02T14:29:31.164Z,1.03
2022-10-02T14:32:43.139Z,1.00
2022-10-02T14:35:26.124Z,1.00
2022-10-02T14:38:17.523Z,1.67
2022-10-02T14:40:47.263Z,0.57
2022-10-02T14:43:22.403Z,1.53
2022-10-02T14:46:17.709Z,0.70
2022-10-02T14:49:23.098Z,0.73
2022-10-02T14:52:13.410Z,1.03
2022-10-02T14:54:57.656Z,0.90
2022-10-02T14:57:50.006Z,0.90
2022-10-02T15:00:21.092Z,1.00
2022-10-02T15:03:10.198Z,1.00
2022-10-02T15:05:55.746Z,0.80
2022-10-02T15:08:31.722Z,1.57
2022-10-02T15:11:00.564Z,0.80
2022-10-02T15:13:44.360Z,1.27
2022-10-02T15:16:40.776Z,1.20
2022-10-02T15:19:18.895Z,0.80
2022-10-02T15:21:49.729Z,0.60
2022-10-02T15:24:28.609Z,2.20
2022-10-02T15:27:10.131Z,2.97
2022-10-02T15:29:55.166Z,1.50
2022-10-02T15:33:00.765Z,1.00
2022-10-02T15:35:49.587Z,1.70
2022-10-02T15:38:45.298Z,0.70
2022-10-02T15:41:12.571Z,0.50
2022-10-02T15:44:06.734Z,3.10
2022-10-02T15:47:11.800Z,3.93
2022-10-02T15:50:13.940Z,0.60
2022-10-02T15:53:11.360Z,1.80
2022-10-02T15:55:40.892Z,0.87
2022-10-02T15:58:16.252Z,1.00
2022-10-02T16:01:01.311Z,1.83
2022-10-02T16:03:50.689Z,1.97
2022-10-02T16:06:53.414Z,1.13
2022-10-02T16:10:02.201Z,1.10
2022-10-02T16:12:50.862Z,1.20
2022-10-02T16:15:38.902Z,1.60
2022-10-02T16:18:21.131Z,1.43
2022-10-02T16:21:13.553Z,1.77
2022-10-02T16:24:08.371Z,1.10
2022-10-02T16:27:00.482Z,2.73
2022-10-02T16:29:50.135Z,1.50
2022-10-02T16:32:23.265Z,2.40
2022-10-02T16:35:14.431Z,1.80
2022-10-02T16:37:48.414Z,2.67
2022-10-02T16:40:45.946Z,0.90
2022-10-02T16:43:39.790Z,1.20
2022-10-02T16:46:39.928Z,1.30
2022-10-02T16:49:28.657Z,1.70
2022-10-02T16:52:18.941Z,1.40
2022-10-02T16:55:07.543Z,3.07
2022-10-02T16:57:49.263Z,1.10
2022-10-02T17:00:31.078Z,2.80
2022-10-02T17:03:34.658Z,1.00
2022-10-02T17:06:22.289Z,0.80
2022-10-02T17:09:15.018Z,1.00
2022-10-02T17:12:07.755Z,1.20
2022-10-02T17:14:58.581Z,2.93
2022-10-02T17:17:50.546Z,1.77
2022-10-02T17:20:23.634Z,1.30
2022-10-02T17:23:19.961Z,3.50
2022-10-02T17:25:47.706Z,1.40
2022-10-02T17:28:49.985Z,0.97
2022-10-02T17:31:50.968Z,2.40
2022-10-02T17:34:23.353Z,1.77
2022-10-02T17:36:54.473Z,2.33
2022-10-02T17:39:40.853Z,1.40
2022-10-02T17:42:41.533Z,1.50
2022-10-02T17:45:39.630Z,1.90
2022-10-02T17:48:20.452Z,3.00
2022-10-02T17:51:39.004Z,1.37
2022-10-02T17:54:56.560Z,1.00
2022-10-02T17:57:29.274Z,1.10
2022-10-02T18:00:03.547Z,1.27
2022-10-02T18:03:01.230Z,3.23
2022-10-02T18:05:53.606Z,1.63
2022-10-02T18:08:39.930Z,3.73
2022-10-02T18:11:42.562Z,2.13
2022-10-02T18:14:39.373Z,2.50
2022-10-02T18:17:20.883Z,1.60
2022-10-02T18:20:05.438Z,1.27
2022-10-02T18:22:53.028Z,1.50
2022-10-02T18:25:27.349Z,1.47
2022-10-02T18:28:17.681Z,2.07
2022-10-02T18:31:02.952Z,1.60
2022-10-02T18:34:02.860Z,1.40
2022-10-02T18:37:10.102Z,2.03
2022-10-02T18:40:06.876Z,1.63
2022-10-02T18:42:59.991Z,2.20
2022-10-02T18:45:34.447Z,2.50
2022-10-02T18:48:33.910Z,2.37
2022-10-02T18:51:26.189Z,1.90
2022-10-02T18:54:07.380Z,2.37
2022-10-02T18:56:43.182Z,5.20
2022-10-02T18:59:15.012Z,2.23
2022-10-02T19:02:07.470Z,2.93
2022-10-02T19:04:55.236Z,1.60
2022-10-02T19:07:29.382Z,1.37
2022-10-02T19:10:26.132Z,2.27
2022-10-02T19:12:59.561Z,1.87
2022-10-02T19:15:30.170Z,2.90
2022-10-02T19:18:03.507Z,2.67
2022-10-02T19:21:03.493Z,1.53
2022-10-02T19:23:33.070Z,3.77
2022-10-02T19:26:07.988Z,2.50
2022-10-02T19:28:45.704Z,2.17
2022-10-02T19:31:13.470Z,1.93
2022-10-02T19:34:13.288Z,2.50
2022-10-02T19:36:50.293Z,2.07
2022-10-02T19:39:31.051Z,2.27
2022-10-02T19:42:03.777Z,2.83
2022-10-02T19:44:37.580Z,3.47
2022-10-02T19:47:16.918Z,2.73
2022-10-02T19:49:49.305Z,2.60
2022-10-02T19:52:58.298Z,2.67
2022-10-02T19:55:32.352Z,2.53
2022-10-02T19:58:17.332Z,3.43
2022-10-02T20:00:44.458Z,4.03
2022-10-02T20:03:24.390Z,2.80
2022-10-02T20:05:55.689Z,2.77
2022-10-02T20:08:27.368Z,3.53
2022-10-02T20:11:07.031Z,4.27
2022-10-02T20:13:47.002Z,4.13
2022-10-02T20:16:37.412Z,4.47
2022-10-02T20:19:07.494Z,4.73
2022-10-02T20:21:52.396Z,4.20
2022-10-02T20:24:45.490Z,5.27
2022-10-02T20:28:03.778Z,8.97
2022-10-02T20:30:41.944Z,4.97
2022-10-02T20:33:15.607Z,5.53
2022-10-02T20:36:16.842Z,5.73
2022-10-02T20:39:20.613Z,7.40
2022-10-02T20:42:09.504Z,4.90
2022-10-02T20:44:37.264Z,6.90
2022-10-02T20:47:19.261Z,7.30
2022-10-02T20:50:12.371Z,8.40
2022-10-02T20:53:02.684Z,7.27
2022-10-02T20:55:56.183Z,5.10
2022-10-02T20:58:36.870Z,5.63
2022-10-02T21:01:18.534Z,7.53
2022-10-02T21:04:22.298Z,6.53
2022-10-02T21:07:13.323Z,6.43
2022-10-02T21:10:15.347Z,9.83
2022-10-02T21:13:07.790Z,10.90
2022-10-02T21:15:54.756Z,8.77
2022-10-02T21:18:27.165Z,9.13
2022-10-02T21:21:23.173Z,8.27
2022-10-02T21:24:29.720Z,8.73
2022-10-02T21:27:02.170Z,8.03
2022-10-02T21:29:47.811Z,7.23
2022-10-02T21:32:39.012Z,8.93
2022-10-02T21:35:34.770Z,8.53
2022-10-02T21:38:31.015Z,10.13
2022-10-02T21:41:32.080Z,9.30
2022-10-02T21:44:18.033Z,7.43
2022-10-02T21:47:34.308Z,12.03
2022-10-02T21:50:22.602Z,10.00
2022-10-02T21:52:58.697Z,10.63
2022-10-02T21:55:38.335Z,11.37
2022-10-02T21:58:15.143Z,12.30
2022-10-02T22:01:02.265Z,10.93
2022-10-02T22:03:49.832Z,9.27
2022-10-02T22:06:57.234Z,10.97
2022-10-02T22:09:50.560Z,10.03
2022-10-02T22:12:49.066Z,12.43
2022-10-02T22:15:30.257Z,8.33
2022-10-02T22:18:31.113Z,10.13
2022-10-02T22:21:05.705Z,9.97
2022-10-02T22:23:32.379Z,11.27
2022-10-02T22:26:12.511Z,8.43
2022-10-02T22:28:44.650Z,12.33
2022-10-02T22:31:14.644Z,10.67
2022-10-02T22:34:03.437Z,11.90
2022-10-02T22:37:08.073Z,9.80
2022-10-02T22:39:43.741Z,14.20
2022-10-02T22:42:23.511Z,10.50
2022-10-02T22:45:19.851Z,10.17
2022-10-02T22:47:54.370Z,13.23
2022-10-02T22:50:52.856Z,9.87
2022-10-02T22:53:38.227Z,12.73
2022-10-02T22:56:34.794Z,9.17
2022-10-02T22:59:13.148Z,14.37
2022-10-02T23:01:58.735Z,11.83
2022-10-02T23:04:43.264Z,10.50
2022-10-02T23:07:30.261Z,13.83
2022-10-02T23:10:02.550Z,12.23
2022-10-02T23:12:36.813Z,15.80
2022-10-02T23:15:03.586Z,14.53
2022-10-02T23:17:35.827Z,14.07
2022-10-02T23:20:12.161Z,14.03
2022-10-02T23:22:52.319Z,14.83
2022-10-02T23:25:48.719Z,14.90
2022-10-02T23:28:35.212Z,16.30
2022-10-02T23:31:13.713Z,10.53
2022-10-02T23:33:59.524Z,14.97
2022-10-02T23:36:26.125Z,18.13
2022-10-02T23:39:19.442Z,11.33
2022-10-02T23:41:48.827Z,13.83
2022-10-02T23:44:37.003Z,13.80
2022-10-02T23:47:36.990Z,12.07
2022-10-02T23:50:20.015Z,13.67
2022-10-02T23:53:31.465Z,12.53
2022-10-02T23:56:22.493Z,15.60
2022-10-02T23:58:55.033Z,11.07
